Esther Spirit — C6FY6 — position and weather

sailwx.info

Track history (hours):
 
Tides and Currents Weather Stations Pressure Air Temp Water Temp Dewpoint Dewpoint Depression Visibility Wind Speed Wind Dir Waves Ship Positions

Esther Spirit

Last reported at 2018-Jun-16 19:01 UTC. Time now 2018-Jun-21 21:31 UTC.
Position N 29°26' W 093°40'.

Length 249 m; draft 8.5 m.

Type: Tanker. MMSI: 311646000.

Date/timePositionNaut miles runAvg speedWind from/ knotsBaromVisibWave heightAir tempDewpointWater temp
2018-Jun-16 19:01N 29°26' W 093°40'0 7.9
2018-Jun-16 19:00N 29°26' W 093°40'5 9.9
2018-Jun-16 18:30N 29°31' W 093°42'612.0
2018-Jun-16 18:00N 29°35' W 093°47'611.6
2018-Jun-16 17:30N 29°40' W 093°50'4 9.2
2018-Jun-16 17:00N 29°44' W 093°52'3 6.8
2018-Jun-16 16:30N 29°46' W 093°55'3 7.0
2018-Jun-16 16:00N 29°49' W 093°58'3 5.9
2018-Jun-16 15:30N 29°52' W 093°56'2 4.0
2018-Jun-16 15:00N 29°53' W 093°55'3 6.2
2018-Jun-16 14:30N 29°56' W 093°53'1 2.9
2018-Jun-16 14:00N 29°57' W 093°52'2 4.6
2018-Jun-16 13:30N 29°59' W 093°53'2 4.6
2018-Jun-16 13:00N 29°59' W 093°56'2 4.5
2018-Jun-16 12:30N 30°01' W 093°58'2 4.4
2018-Jun-16 12:00N 30°01' W 094°00'2 4.3
2018-Jun-16 11:30N 30°02' W 094°02'0 0.2
2018-Jun-16 11:00N 30°02' W 094°02'0 0.0
2018-Jun-16 10:29N 30°02' W 094°02'0 0.0
2018-Jun-16 09:56N 30°02' W 094°02'0 0.0
2018-Jun-16 09:29N 30°02' W 094°02'0 0.0
2018-Jun-16 08:59N 30°02' W 094°02'0 0.0
2018-Jun-16 08:26N 30°02' W 094°02'0 0.0
2018-Jun-16 07:59N 30°02' W 094°02'0 0.0
2018-Jun-16 07:26N 30°02' W 094°02'0 0.0
2018-Jun-16 06:59N 30°02' W 094°02'0 0.0
2018-Jun-16 06:23N 30°02' W 094°02'0 0.0
2018-Jun-16 05:59N 30°02' W 094°02'0 0.0
2018-Jun-16 05:29N 30°02' W 094°02'0 0.0
2018-Jun-16 04:56N 30°02' W 094°02'0 0.0
2018-Jun-16 04:29N 30°02' W 094°02'0 0.0
2018-Jun-16 03:59N 30°02' W 094°02'0 0.0
2018-Jun-16 03:29N 30°02' W 094°02'0 0.0
2018-Jun-16 02:59N 30°02' W 094°02'0 0.0
2018-Jun-16 02:29N 30°02' W 094°02'0 0.0
2018-Jun-16 01:59N 30°02' W 094°02'0 0.0
2018-Jun-16 01:29N 30°02' W 094°02'0 0.0
2018-Jun-16 00:59N 30°02' W 094°02'0 0.0
2018-Jun-16 00:29N 30°02' W 094°02'0 0.0
2018-Jun-15 23:59N 30°02' W 094°02'0 0.0
2018-Jun-15 23:29N 30°02' W 094°02'0 0.0
2018-Jun-15 22:59N 30°02' W 094°02'0 0.0
2018-Jun-15 22:29N 30°02' W 094°02'0 0.0
2018-Jun-15 21:59N 30°02' W 094°02'0 0.0
2018-Jun-15 21:29N 30°02' W 094°02'0 0.0
2018-Jun-15 20:59N 30°02' W 094°02'0 0.0
2018-Jun-15 20:29N 30°02' W 094°02'0 0.0
2018-Jun-15 19:59N 30°02' W 094°02'0 0.0
2018-Jun-15 19:29N 30°02' W 094°02'0 0.0
2018-Jun-15 18:59N 30°02' W 094°02'0 0.0
2018-Jun-15 18:26N 30°02' W 094°02'0 0.0
2018-Jun-15 17:59N 30°02' W 094°02'0 0.0
2018-Jun-15 17:29N 30°02' W 094°02'0 0.0
2018-Jun-15 16:56N 30°02' W 094°02'0 0.0
2018-Jun-15 16:29N 30°02' W 094°02'0 0.0
2018-Jun-15 15:59N 30°02' W 094°02'0 0.0
2018-Jun-15 15:29N 30°02' W 094°02'0 0.0
2018-Jun-15 14:59N 30°02' W 094°02'0 0.0
2018-Jun-15 14:29N 30°02' W 094°02'0 0.0
2018-Jun-15 13:56N 30°02' W 094°02'0 0.0
2018-Jun-15 13:29N 30°02' W 094°02'0 0.0
2018-Jun-15 12:59N 30°02' W 094°02'0 0.0
2018-Jun-15 12:29N 30°02' W 094°02'0 0.0
2018-Jun-15 11:59N 30°02' W 094°02'0 0.0
2018-Jun-15 11:29N 30°02' W 094°02'0 0.0
2018-Jun-15 10:59N 30°02' W 094°02'0 0.0
2018-Jun-15 10:29N 30°02' W 094°02'0 0.0
2018-Jun-15 09:59N 30°02' W 094°02'0 0.0
2018-Jun-15 09:29N 30°02' W 094°02'0 0.0
2018-Jun-15 08:56N 30°02' W 094°02'0 0.0
2018-Jun-15 08:29N 30°02' W 094°02'0 0.0
2018-Jun-15 07:59N 30°02' W 094°02'0 0.0
2018-Jun-15 07:26N 30°02' W 094°02'0 0.0
2018-Jun-15 06:59N 30°02' W 094°02'0 0.0
2018-Jun-15 06:23N 30°02' W 094°02'0 0.0
2018-Jun-15 05:59N 30°02' W 094°02'0 0.0
2018-Jun-15 05:25N 30°02' W 094°02'0 0.0
2018-Jun-15 04:58N 30°02' W 094°02'0 0.0
2018-Jun-15 04:28N 30°02' W 094°02'0 0.0
2018-Jun-15 03:58N 30°02' W 094°02'0 0.0
2018-Jun-15 03:25N 30°02' W 094°02'0 0.0
2018-Jun-15 02:55N 30°02' W 094°02'0 0.0
2018-Jun-15 02:28N 30°02' W 094°02'0 0.0
2018-Jun-15 01:58N 30°02' W 094°02'0 0.0
2018-Jun-15 01:28N 30°02' W 094°02'0 0.0
2018-Jun-15 00:58N 30°02' W 094°02'0 0.0
2018-Jun-15 00:28N 30°02' W 094°02'0 0.0
2018-Jun-14 23:58N 30°02' W 094°02'0 0.0
2018-Jun-14 23:28N 30°02' W 094°02'0 0.0
2018-Jun-14 22:58N 30°02' W 094°02'0 0.0
2018-Jun-14 22:28N 30°02' W 094°02'0 0.0
2018-Jun-14 21:58N 30°02' W 094°02'0 0.0
2018-Jun-14 21:28N 30°02' W 094°02'0 0.0
2018-Jun-14 20:58N 30°02' W 094°02'0 0.0
2018-Jun-14 20:25N 30°02' W 094°02'0 0.0
2018-Jun-14 19:58N 30°02' W 094°02'0 0.0
2018-Jun-14 19:28N 30°02' W 094°02'0 0.0
2018-Jun-14 18:58N 30°02' W 094°02'0 0.0
2018-Jun-14 18:28N 30°02' W 094°02'0 0.0
2018-Jun-14 17:58N 30°02' W 094°02'0 0.0
2018-Jun-14 17:28N 30°02' W 094°02'0 0.0
2018-Jun-14 16:58N 30°02' W 094°02'0 0.0
2018-Jun-14 16:28N 30°02' W 094°02'0 0.0
2018-Jun-14 15:58N 30°02' W 094°02'0 0.0
2018-Jun-14 15:28N 30°02' W 094°02'0 0.0
2018-Jun-14 14:58N 30°02' W 094°02'0 0.0
2018-Jun-14 14:28N 30°02' W 094°02'0 0.0
2018-Jun-14 13:55N 30°02' W 094°02'0 0.0
2018-Jun-14 13:28N 30°02' W 094°02'0 0.0
2018-Jun-14 12:58N 30°02' W 094°02'0 0.0
2018-Jun-14 12:28N 30°02' W 094°02'0 0.0
2018-Jun-14 11:58N 30°02' W 094°02'0 0.0
2018-Jun-14 11:28N 30°02' W 094°02'0 0.0
2018-Jun-14 10:58N 30°02' W 094°02'0 0.0
2018-Jun-14 10:28N 30°02' W 094°02'0 0.0
2018-Jun-14 09:58N 30°02' W 094°02'0 0.0
2018-Jun-14 09:28N 30°02' W 094°02'0 0.0
2018-Jun-14 08:58N 30°02' W 094°02'0 0.0
2018-Jun-14 08:28N 30°02' W 094°02'0 0.0
2018-Jun-14 07:58N 30°02' W 094°02'0 0.0
2018-Jun-14 07:25N 30°02' W 094°02'0 0.0
2018-Jun-14 06:58N 30°02' W 094°02'0 0.0
2018-Jun-14 06:28N 30°02' W 094°02'0 0.0
2018-Jun-14 05:58N 30°02' W 094°02'0 0.0
2018-Jun-14 05:28N 30°02' W 094°02'0 0.0
2018-Jun-14 04:58N 30°02' W 094°02'0 0.0
2018-Jun-14 04:28N 30°02' W 094°02'0 0.0
2018-Jun-14 03:58N 30°02' W 094°02'0 0.0
2018-Jun-14 03:28N 30°02' W 094°02'0 0.0
2018-Jun-14 02:58N 30°02' W 094°02'0 0.0
2018-Jun-14 02:28N 30°02' W 094°02'0 0.0
2018-Jun-14 01:58N 30°02' W 094°02'0 0.0
2018-Jun-14 01:28N 30°02' W 094°02'0 0.0
2018-Jun-14 01:00N 30°02' W 094°02'0 0.3
2018-Jun-14 00:30N 30°02' W 094°02'2 3.7
2018-Jun-14 00:00N 30°01' W 094°00'2 4.2
2018-Jun-13 23:30N 30°01' W 093°58'3 5.5
2018-Jun-13 23:00N 29°59' W 093°55'3 6.7
2018-Jun-13 22:30N 29°58' W 093°52'3 6.9
2018-Jun-13 22:00N 29°55' W 093°53'4 7.3
2018-Jun-13 21:30N 29°52' W 093°56'3 5.0
2018-Jun-13 21:00N 29°50' W 093°57'3 6.3
2018-Jun-13 20:30N 29°47' W 093°57'4 7.8
2018-Jun-13 20:00N 29°45' W 093°53'5 9.2
2018-Jun-13 19:30N 29°41' W 093°50'611.5
2018-Jun-13 19:00N 29°36' W 093°48'612.1
2018-Jun-13 18:30N 29°32' W 093°43'6 9.6
2018-Jun-13 17:52N 29°26' W 093°40'1 1.0
2018-Jun-13 16:50N 29°25' W 093°39'1 0.0
2018-Jun-11 19:30N 29°26' W 093°39'1 2.0
2018-Jun-11 19:00N 29°25' W 093°39'  
Track history (hours):
 
Tides and Currents Weather Stations Pressure Air Temp Water Temp Dewpoint Dewpoint Depression Visibility Wind Speed Wind Dir Waves Ship Positions

Esther Spirit

Last reported at 2018-Jun-16 19:01 UTC. Time now 2018-Jun-21 21:31 UTC.
Position N 29°26' W 093°40'.

Length 249 m; draft 8.5 m.

Type: Tanker. MMSI: 311646000.

Date/timePositionNaut miles runAvg speedWind from/ knotsBaromVisibWave heightAir tempDewpointWater temp
2018-Jun-16 19:01N 29°26' W 093°40'0 7.9
2018-Jun-16 19:00N 29°26' W 093°40'5 9.9
2018-Jun-16 18:30N 29°31' W 093°42'612.0
2018-Jun-16 18:00N 29°35' W 093°47'611.6
2018-Jun-16 17:30N 29°40' W 093°50'4 9.2
2018-Jun-16 17:00N 29°44' W 093°52'3 6.8
2018-Jun-16 16:30N 29°46' W 093°55'3 7.0
2018-Jun-16 16:00N 29°49' W 093°58'3 5.9
2018-Jun-16 15:30N 29°52' W 093°56'2 4.0
2018-Jun-16 15:00N 29°53' W 093°55'3 6.2
2018-Jun-16 14:30N 29°56' W 093°53'1 2.9
2018-Jun-16 14:00N 29°57' W 093°52'2 4.6
2018-Jun-16 13:30N 29°59' W 093°53'2 4.6
2018-Jun-16 13:00N 29°59' W 093°56'2 4.5
2018-Jun-16 12:30N 30°01' W 093°58'2 4.4
2018-Jun-16 12:00N 30°01' W 094°00'2 4.3
2018-Jun-16 11:30N 30°02' W 094°02'0 0.2
2018-Jun-16 11:00N 30°02' W 094°02'0 0.0
2018-Jun-16 10:29N 30°02' W 094°02'0 0.0
2018-Jun-16 09:56N 30°02' W 094°02'0 0.0
2018-Jun-16 09:29N 30°02' W 094°02'0 0.0
2018-Jun-16 08:59N 30°02' W 094°02'0 0.0
2018-Jun-16 08:26N 30°02' W 094°02'0 0.0
2018-Jun-16 07:59N 30°02' W 094°02'0 0.0
2018-Jun-16 07:26N 30°02' W 094°02'0 0.0
2018-Jun-16 06:59N 30°02' W 094°02'0 0.0
2018-Jun-16 06:23N 30°02' W 094°02'0 0.0
2018-Jun-16 05:59N 30°02' W 094°02'0 0.0
2018-Jun-16 05:29N 30°02' W 094°02'0 0.0
2018-Jun-16 04:56N 30°02' W 094°02'0 0.0
2018-Jun-16 04:29N 30°02' W 094°02'0 0.0
2018-Jun-16 03:59N 30°02' W 094°02'0 0.0
2018-Jun-16 03:29N 30°02' W 094°02'0 0.0
2018-Jun-16 02:59N 30°02' W 094°02'0 0.0
2018-Jun-16 02:29N 30°02' W 094°02'0 0.0
2018-Jun-16 01:59N 30°02' W 094°02'0 0.0
2018-Jun-16 01:29N 30°02' W 094°02'0 0.0
2018-Jun-16 00:59N 30°02' W 094°02'0 0.0
2018-Jun-16 00:29N 30°02' W 094°02'0 0.0
2018-Jun-15 23:59N 30°02' W 094°02'0 0.0
2018-Jun-15 23:29N 30°02' W 094°02'0 0.0
2018-Jun-15 22:59N 30°02' W 094°02'0 0.0
2018-Jun-15 22:29N 30°02' W 094°02'0 0.0
2018-Jun-15 21:59N 30°02' W 094°02'0 0.0
2018-Jun-15 21:29N 30°02' W 094°02'0 0.0
2018-Jun-15 20:59N 30°02' W 094°02'0 0.0
2018-Jun-15 20:29N 30°02' W 094°02'0 0.0
2018-Jun-15 19:59N 30°02' W 094°02'0 0.0
2018-Jun-15 19:29N 30°02' W 094°02'0 0.0
2018-Jun-15 18:59N 30°02' W 094°02'0 0.0
2018-Jun-15 18:26N 30°02' W 094°02'0 0.0
2018-Jun-15 17:59N 30°02' W 094°02'0 0.0
2018-Jun-15 17:29N 30°02' W 094°02'0 0.0
2018-Jun-15 16:56N 30°02' W 094°02'0 0.0
2018-Jun-15 16:29N 30°02' W 094°02'0 0.0
2018-Jun-15 15:59N 30°02' W 094°02'0 0.0
2018-Jun-15 15:29N 30°02' W 094°02'0 0.0
2018-Jun-15 14:59N 30°02' W 094°02'0 0.0
2018-Jun-15 14:29N 30°02' W 094°02'0 0.0
2018-Jun-15 13:56N 30°02' W 094°02'0 0.0
2018-Jun-15 13:29N 30°02' W 094°02'0 0.0
2018-Jun-15 12:59N 30°02' W 094°02'0 0.0
2018-Jun-15 12:29N 30°02' W 094°02'0 0.0
2018-Jun-15 11:59N 30°02' W 094°02'0 0.0
2018-Jun-15 11:29N 30°02' W 094°02'0 0.0
2018-Jun-15 10:59N 30°02' W 094°02'0 0.0
2018-Jun-15 10:29N 30°02' W 094°02'0 0.0
2018-Jun-15 09:59N 30°02' W 094°02'0 0.0
2018-Jun-15 09:29N 30°02' W 094°02'0 0.0
2018-Jun-15 08:56N 30°02' W 094°02'0 0.0
2018-Jun-15 08:29N 30°02' W 094°02'0 0.0
2018-Jun-15 07:59N 30°02' W 094°02'0 0.0
2018-Jun-15 07:26N 30°02' W 094°02'0 0.0
2018-Jun-15 06:59N 30°02' W 094°02'0 0.0
2018-Jun-15 06:23N 30°02' W 094°02'0 0.0
2018-Jun-15 05:59N 30°02' W 094°02'0 0.0
2018-Jun-15 05:25N 30°02' W 094°02'0 0.0
2018-Jun-15 04:58N 30°02' W 094°02'0 0.0
2018-Jun-15 04:28N 30°02' W 094°02'0 0.0
2018-Jun-15 03:58N 30°02' W 094°02'0 0.0
2018-Jun-15 03:25N 30°02' W 094°02'0 0.0
2018-Jun-15 02:55N 30°02' W 094°02'0 0.0
2018-Jun-15 02:28N 30°02' W 094°02'0 0.0
2018-Jun-15 01:58N 30°02' W 094°02'0 0.0
2018-Jun-15 01:28N 30°02' W 094°02'0 0.0
2018-Jun-15 00:58N 30°02' W 094°02'0 0.0
2018-Jun-15 00:28N 30°02' W 094°02'0 0.0
2018-Jun-14 23:58N 30°02' W 094°02'0 0.0
2018-Jun-14 23:28N 30°02' W 094°02'0 0.0
2018-Jun-14 22:58N 30°02' W 094°02'0 0.0
2018-Jun-14 22:28N 30°02' W 094°02'0 0.0
2018-Jun-14 21:58N 30°02' W 094°02'0 0.0
2018-Jun-14 21:28N 30°02' W 094°02'0 0.0
2018-Jun-14 20:58N 30°02' W 094°02'0 0.0
2018-Jun-14 20:25N 30°02' W 094°02'0 0.0
2018-Jun-14 19:58N 30°02' W 094°02'0 0.0
2018-Jun-14 19:28N 30°02' W 094°02'0 0.0
2018-Jun-14 18:58N 30°02' W 094°02'0 0.0
2018-Jun-14 18:28N 30°02' W 094°02'0 0.0
2018-Jun-14 17:58N 30°02' W 094°02'0 0.0
2018-Jun-14 17:28N 30°02' W 094°02'0 0.0
2018-Jun-14 16:58N 30°02' W 094°02'0 0.0
2018-Jun-14 16:28N 30°02' W 094°02'0 0.0
2018-Jun-14 15:58N 30°02' W 094°02'0 0.0
2018-Jun-14 15:28N 30°02' W 094°02'0 0.0
2018-Jun-14 14:58N 30°02' W 094°02'0 0.0
2018-Jun-14 14:28N 30°02' W 094°02'0 0.0
2018-Jun-14 13:55N 30°02' W 094°02'0 0.0
2018-Jun-14 13:28N 30°02' W 094°02'0 0.0
2018-Jun-14 12:58N 30°02' W 094°02'0 0.0
2018-Jun-14 12:28N 30°02' W 094°02'0 0.0
2018-Jun-14 11:58N 30°02' W 094°02'0 0.0
2018-Jun-14 11:28N 30°02' W 094°02'0 0.0
2018-Jun-14 10:58N 30°02' W 094°02'0 0.0
2018-Jun-14 10:28N 30°02' W 094°02'0 0.0
2018-Jun-14 09:58N 30°02' W 094°02'0 0.0
2018-Jun-14 09:28N 30°02' W 094°02'0 0.0
2018-Jun-14 08:58N 30°02' W 094°02'0 0.0
2018-Jun-14 08:28N 30°02' W 094°02'0 0.0
2018-Jun-14 07:58N 30°02' W 094°02'0 0.0
2018-Jun-14 07:25N 30°02' W 094°02'0 0.0
2018-Jun-14 06:58N 30°02' W 094°02'0 0.0
2018-Jun-14 06:28N 30°02' W 094°02'0 0.0
2018-Jun-14 05:58N 30°02' W 094°02'0 0.0
2018-Jun-14 05:28N 30°02' W 094°02'0 0.0
2018-Jun-14 04:58N 30°02' W 094°02'0 0.0
2018-Jun-14 04:28N 30°02' W 094°02'0 0.0
2018-Jun-14 03:58N 30°02' W 094°02'0 0.0
2018-Jun-14 03:28N 30°02' W 094°02'0 0.0
2018-Jun-14 02:58N 30°02' W 094°02'0 0.0
2018-Jun-14 02:28N 30°02' W 094°02'0 0.0
2018-Jun-14 01:58N 30°02' W 094°02'0 0.0
2018-Jun-14 01:28N 30°02' W 094°02'0 0.0
2018-Jun-14 01:00N 30°02' W 094°02'0 0.3
2018-Jun-14 00:30N 30°02' W 094°02'2 3.7
2018-Jun-14 00:00N 30°01' W 094°00'2 4.2
2018-Jun-13 23:30N 30°01' W 093°58'3 5.5
2018-Jun-13 23:00N 29°59' W 093°55'3 6.7
2018-Jun-13 22:30N 29°58' W 093°52'3 6.9
2018-Jun-13 22:00N 29°55' W 093°53'4 7.3
2018-Jun-13 21:30N 29°52' W 093°56'3 5.0
2018-Jun-13 21:00N 29°50' W 093°57'3 6.3
2018-Jun-13 20:30N 29°47' W 093°57'4 7.8
2018-Jun-13 20:00N 29°45' W 093°53'5 9.2
2018-Jun-13 19:30N 29°41' W 093°50'611.5
2018-Jun-13 19:00N 29°36' W 093°48'612.1
2018-Jun-13 18:30N 29°32' W 093°43'6 9.6
2018-Jun-13 17:52N 29°26' W 093°40'1 1.0
2018-Jun-13 16:50N 29°25' W 093°39'1 0.0
2018-Jun-11 19:30N 29°26' W 093°39'1 2.0
2018-Jun-11 19:00N 29°25' W 093°39'  

Dump ship's entire track history